sensor_id;sensor_type;location;lat;lon;timestamp;temperature;humidity
516;DHT22;244;48.508;9.052;2023-04-24T00:01:33;13.30;14.60
516;DHT22;244;48.508;9.052;2023-04-24T00:04:02;13.30;14.50
516;DHT22;244;48.508;9.052;2023-04-24T00:06:30;13.30;14.50
516;DHT22;244;48.508;9.052;2023-04-24T00:08:59;13.20;14.50
516;DHT22;244;48.508;9.052;2023-04-24T00:11:27;13.20;14.50
516;DHT22;244;48.508;9.052;2023-04-24T00:13:54;13.20;14.50
516;DHT22;244;48.508;9.052;2023-04-24T00:16:21;13.20;14.40
516;DHT22;244;48.508;9.052;2023-04-24T00:18:48;13.20;14.40
516;DHT22;244;48.508;9.052;2023-04-24T00:21:15;13.20;14.30
516;DHT22;244;48.508;9.052;2023-04-24T00:23:44;13.20;14.30
516;DHT22;244;48.508;9.052;2023-04-24T00:26:11;13.20;14.30
516;DHT22;244;48.508;9.052;2023-04-24T00:28:38;13.20;14.30
516;DHT22;244;48.508;9.052;2023-04-24T00:31:05;13.20;14.30
516;DHT22;244;48.508;9.052;2023-04-24T00:33:32;13.20;14.30
516;DHT22;244;48.508;9.052;2023-04-24T00:35:59;13.20;14.30
516;DHT22;244;48.508;9.052;2023-04-24T00:38:26;13.20;14.30
516;DHT22;244;48.508;9.052;2023-04-24T00:40:54;13.20;14.20
516;DHT22;244;48.508;9.052;2023-04-24T00:43:21;13.30;14.20
516;DHT22;244;48.508;9.052;2023-04-24T00:45:48;13.30;14.20
516;DHT22;244;48.508;9.052;2023-04-24T00:48:16;13.30;14.10
516;DHT22;244;48.508;9.052;2023-04-24T00:50:43;13.30;14.10
516;DHT22;244;48.508;9.052;2023-04-24T00:53:10;13.30;14.00
516;DHT22;244;48.508;9.052;2023-04-24T00:55:37;13.30;14.00
516;DHT22;244;48.508;9.052;2023-04-24T00:58:06;13.30;14.10
516;DHT22;244;48.508;9.052;2023-04-24T01:00:33;13.30;14.10
516;DHT22;244;48.508;9.052;2023-04-24T01:03:01;13.30;14.70
516;DHT22;244;48.508;9.052;2023-04-24T01:05:31;13.30;14.10
516;DHT22;244;48.508;9.052;2023-04-24T01:07:59;13.30;14.10
516;DHT22;244;48.508;9.052;2023-04-24T01:10:29;13.20;14.30
516;DHT22;244;48.508;9.052;2023-04-24T01:12:58;13.10;14.40
516;DHT22;244;48.508;9.052;2023-04-24T01:15:26;13.00;14.60
516;DHT22;244;48.508;9.052;2023-04-24T01:17:53;12.90;15.40
516;DHT22;244;48.508;9.052;2023-04-24T01:20:21;12.80;15.10
516;DHT22;244;48.508;9.052;2023-04-24T01:22:51;12.70;15.20
516;DHT22;244;48.508;9.052;2023-04-24T01:25:18;12.60;15.50
516;DHT22;244;48.508;9.052;2023-04-24T01:27:45;12.50;16.00
516;DHT22;244;48.508;9.052;2023-04-24T01:30:13;12.40;16.50
516;DHT22;244;48.508;9.052;2023-04-24T01:32:40;12.30;16.50
516;DHT22;244;48.508;9.052;2023-04-24T01:35:10;12.20;17.20
516;DHT22;244;48.508;9.052;2023-04-24T01:37:37;12.10;17.60
516;DHT22;244;48.508;9.052;2023-04-24T01:40:06;12.10;18.20
516;DHT22;244;48.508;9.052;2023-04-24T01:42:34;12.10;18.60
516;DHT22;244;48.508;9.052;2023-04-24T01:45:03;12.00;19.00
516;DHT22;244;48.508;9.052;2023-04-24T01:47:31;12.00;19.40
516;DHT22;244;48.508;9.052;2023-04-24T01:49:58;12.00;19.90
516;DHT22;244;48.508;9.052;2023-04-24T01:52:25;12.00;20.10
516;DHT22;244;48.508;9.052;2023-04-24T01:54:52;12.00;20.40
516;DHT22;244;48.508;9.052;2023-04-24T01:57:22;12.10;20.70
516;DHT22;244;48.508;9.052;2023-04-24T01:59:50;12.00;20.70
516;DHT22;244;48.508;9.052;2023-04-24T02:02:17;12.00;21.10
516;DHT22;244;48.508;9.052;2023-04-24T02:04:46;12.00;21.30
516;DHT22;244;48.508;9.052;2023-04-24T02:07:13;12.00;21.50
516;DHT22;244;48.508;9.052;2023-04-24T02:09:40;12.00;21.60
516;DHT22;244;48.508;9.052;2023-04-24T02:12:07;11.90;21.80
516;DHT22;244;48.508;9.052;2023-04-24T02:14:35;11.90;22.10
516;DHT22;244;48.508;9.052;2023-04-24T02:17:02;11.90;22.30
516;DHT22;244;48.508;9.052;2023-04-24T02:19:30;11.90;22.50
516;DHT22;244;48.508;9.052;2023-04-24T02:21:57;11.90;22.70
516;DHT22;244;48.508;9.052;2023-04-24T02:24:24;11.90;22.80
516;DHT22;244;48.508;9.052;2023-04-24T02:26:51;11.90;23.00
516;DHT22;244;48.508;9.052;2023-04-24T02:29:18;11.80;23.10
516;DHT22;244;48.508;9.052;2023-04-24T02:31:46;11.80;23.20
516;DHT22;244;48.508;9.052;2023-04-24T02:34:13;11.80;23.30
516;DHT22;244;48.508;9.052;2023-04-24T02:36:40;11.80;23.50
516;DHT22;244;48.508;9.052;2023-04-24T02:39:07;11.80;23.60
516;DHT22;244;48.508;9.052;2023-04-24T02:41:34;11.80;23.80
516;DHT22;244;48.508;9.052;2023-04-24T02:44:01;11.80;24.10
516;DHT22;244;48.508;9.052;2023-04-24T02:46:28;11.80;24.30
516;DHT22;244;48.508;9.052;2023-04-24T02:48:56;11.80;24.40
516;DHT22;244;48.508;9.052;2023-04-24T02:51:23;11.80;24.40
516;DHT22;244;48.508;9.052;2023-04-24T02:53:50;11.80;24.60
516;DHT22;244;48.508;9.052;2023-04-24T02:56:17;11.80;24.70
516;DHT22;244;48.508;9.052;2023-04-24T02:58:44;11.90;24.80
516;DHT22;244;48.508;9.052;2023-04-24T03:01:11;11.90;24.80
516;DHT22;244;48.508;9.052;2023-04-24T03:03:38;11.80;25.30
516;DHT22;244;48.508;9.052;2023-04-24T03:06:07;11.90;24.80
516;DHT22;244;48.508;9.052;2023-04-24T03:08:34;11.90;24.80
516;DHT22;244;48.508;9.052;2023-04-24T03:11:01;11.90;24.80
516;DHT22;244;48.508;9.052;2023-04-24T03:13:28;11.90;24.80
516;DHT22;244;48.508;9.052;2023-04-24T03:15:55;11.90;25.40
516;DHT22;244;48.508;9.052;2023-04-24T03:18:22;11.90;24.80
516;DHT22;244;48.508;9.052;2023-04-24T03:20:49;11.90;25.10
516;DHT22;244;48.508;9.052;2023-04-24T03:23:18;11.80;25.20
516;DHT22;244;48.508;9.052;2023-04-24T03:25:45;11.80;25.20
516;DHT22;244;48.508;9.052;2023-04-24T03:28:14;11.80;25.80
516;DHT22;244;48.508;9.052;2023-04-24T03:30:40;11.80;25.30
516;DHT22;244;48.508;9.052;2023-04-24T03:33:07;11.70;25.50
516;DHT22;244;48.508;9.052;2023-04-24T03:35:35;11.60;25.70
516;DHT22;244;48.508;9.052;2023-04-24T03:38:02;11.50;25.90
516;DHT22;244;48.508;9.052;2023-04-24T03:40:31;11.40;26.10
516;DHT22;244;48.508;9.052;2023-04-24T03:42:59;11.40;26.40
516;DHT22;244;48.508;9.052;2023-04-24T03:45:26;11.40;26.60
516;DHT22;244;48.508;9.052;2023-04-24T03:47:52;11.40;26.70
516;DHT22;244;48.508;9.052;2023-04-24T03:50:19;11.40;26.70
516;DHT22;244;48.508;9.052;2023-04-24T03:52:46;11.40;26.60
516;DHT22;244;48.508;9.052;2023-04-24T03:55:13;11.30;26.50
516;DHT22;244;48.508;9.052;2023-04-24T03:57:42;11.20;26.50
516;DHT22;244;48.508;9.052;2023-04-24T04:00:10;11.10;26.50
516;DHT22;244;48.508;9.052;2023-04-24T04:02:37;11.10;26.70
516;DHT22;244;48.508;9.052;2023-04-24T04:05:04;11.00;26.80
516;DHT22;244;48.508;9.052;2023-04-24T04:07:31;10.90;27.10
516;DHT22;244;48.508;9.052;2023-04-24T04:09:58;10.90;27.20
516;DHT22;244;48.508;9.052;2023-04-24T04:12:25;11.00;27.50
516;DHT22;244;48.508;9.052;2023-04-24T04:14:53;11.00;27.60
516;DHT22;244;48.508;9.052;2023-04-24T04:17:20;11.10;27.70
516;DHT22;244;48.508;9.052;2023-04-24T04:19:47;11.10;27.70
516;DHT22;244;48.508;9.052;2023-04-24T04:22:14;11.20;27.90
516;DHT22;244;48.508;9.052;2023-04-24T04:24:41;11.20;27.80
516;DHT22;244;48.508;9.052;2023-04-24T04:27:09;11.30;27.90
516;DHT22;244;48.508;9.052;2023-04-24T04:29:36;11.30;27.90
516;DHT22;244;48.508;9.052;2023-04-24T04:32:05;11.40;28.00
516;DHT22;244;48.508;9.052;2023-04-24T04:34:32;11.40;28.00
516;DHT22;244;48.508;9.052;2023-04-24T04:36:59;11.50;28.00
516;DHT22;244;48.508;9.052;2023-04-24T04:39:27;11.50;27.90
516;DHT22;244;48.508;9.052;2023-04-24T04:41:55;11.50;27.50
516;DHT22;244;48.508;9.052;2023-04-24T04:44:22;11.40;27.90
516;DHT22;244;48.508;9.052;2023-04-24T04:46:50;11.40;28.00
516;DHT22;244;48.508;9.052;2023-04-24T04:49:20;11.40;27.90
516;DHT22;244;48.508;9.052;2023-04-24T04:52:02;11.40;28.50
516;DHT22;244;48.508;9.052;2023-04-24T05:05:00;11.30;28.10
516;DHT22;244;48.508;9.052;2023-04-24T05:07:27;11.20;28.20
516;DHT22;244;48.508;9.052;2023-04-24T05:09:59;11.20;28.20
516;DHT22;244;48.508;9.052;2023-04-24T05:13:07;11.10;28.10
516;DHT22;244;48.508;9.052;2023-04-24T05:15:43;11.00;28.40
516;DHT22;244;48.508;9.052;2023-04-24T05:18:16;10.90;28.00
516;DHT22;244;48.508;9.052;2023-04-24T05:21:33;10.80;27.90
516;DHT22;244;48.508;9.052;2023-04-24T05:24:19;10.70;28.10
516;DHT22;244;48.508;9.052;2023-04-24T05:27:02;10.70;28.20
516;DHT22;244;48.508;9.052;2023-04-24T05:29:34;10.60;28.30
516;DHT22;244;48.508;9.052;2023-04-24T05:32:34;10.60;28.50
516;DHT22;244;48.508;9.052;2023-04-24T05:35:59;10.60;28.70
516;DHT22;244;48.508;9.052;2023-04-24T05:38:58;10.60;29.00
516;DHT22;244;48.508;9.052;2023-04-24T05:42:13;10.70;28.90
516;DHT22;244;48.508;9.052;2023-04-24T05:44:57;10.70;28.80
516;DHT22;244;48.508;9.052;2023-04-24T05:47:48;10.80;28.80
516;DHT22;244;48.508;9.052;2023-04-24T05:50:35;10.80;28.80
516;DHT22;244;48.508;9.052;2023-04-24T05:57:18;11.00;28.60
516;DHT22;244;48.508;9.052;2023-04-24T05:59:53;11.10;28.30
516;DHT22;244;48.508;9.052;2023-04-24T06:02:22;11.10;28.30
516;DHT22;244;48.508;9.052;2023-04-24T06:04:53;11.10;28.30
516;DHT22;244;48.508;9.052;2023-04-24T06:07:21;11.00;28.40
516;DHT22;244;48.508;9.052;2023-04-24T06:09:48;11.00;28.40
516;DHT22;244;48.508;9.052;2023-04-24T06:12:16;11.00;28.60
516;DHT22;244;48.508;9.052;2023-04-24T06:14:43;11.00;28.60
516;DHT22;244;48.508;9.052;2023-04-24T06:17:12;11.00;28.60
516;DHT22;244;48.508;9.052;2023-04-24T06:19:39;11.10;28.80
516;DHT22;244;48.508;9.052;2023-04-24T06:22:07;11.10;28.70
516;DHT22;244;48.508;9.052;2023-04-24T06:24:34;11.10;28.90
516;DHT22;244;48.508;9.052;2023-04-24T06:27:01;11.20;29.00
516;DHT22;244;48.508;9.052;2023-04-24T06:29:30;11.10;29.00
516;DHT22;244;48.508;9.052;2023-04-24T06:31:57;11.20;29.20
516;DHT22;244;48.508;9.052;2023-04-24T06:34:24;11.30;29.30
516;DHT22;244;48.508;9.052;2023-04-24T06:36:51;11.40;29.50
516;DHT22;244;48.508;9.052;2023-04-24T06:39:18;11.50;29.50
516;DHT22;244;48.508;9.052;2023-04-24T06:41:45;11.60;29.60
516;DHT22;244;48.508;9.052;2023-04-24T06:44:12;11.70;29.80
516;DHT22;244;48.508;9.052;2023-04-24T06:46:41;11.90;29.90
516;DHT22;244;48.508;9.052;2023-04-24T06:49:08;12.10;29.80
516;DHT22;244;48.508;9.052;2023-04-24T06:51:35;12.30;29.60
516;DHT22;244;48.508;9.052;2023-04-24T06:54:02;12.40;29.50
516;DHT22;244;48.508;9.052;2023-04-24T06:56:29;12.60;29.50
516;DHT22;244;48.508;9.052;2023-04-24T06:58:57;12.70;29.70
516;DHT22;244;48.508;9.052;2023-04-24T07:01:24;12.90;29.70
516;DHT22;244;48.508;9.052;2023-04-24T07:03:52;13.10;29.70
516;DHT22;244;48.508;9.052;2023-04-24T07:06:19;13.20;29.90
516;DHT22;244;48.508;9.052;2023-04-24T07:08:48;13.20;29.60
516;DHT22;244;48.508;9.052;2023-04-24T07:11:15;13.30;29.10
516;DHT22;244;48.508;9.052;2023-04-24T07:13:42;13.20;29.00
516;DHT22;244;48.508;9.052;2023-04-24T07:16:09;13.30;28.80
516;DHT22;244;48.508;9.052;2023-04-24T07:18:36;13.20;28.30
516;DHT22;244;48.508;9.052;2023-04-24T07:21:22;13.20;28.10
516;DHT22;244;48.508;9.052;2023-04-24T07:23:57;13.20;27.70
516;DHT22;244;48.508;9.052;2023-04-24T07:26:25;13.00;27.00
516;DHT22;244;48.508;9.052;2023-04-24T07:28:52;12.90;26.00
516;DHT22;244;48.508;9.052;2023-04-24T07:31:19;12.80;25.60
516;DHT22;244;48.508;9.052;2023-04-24T07:33:47;12.80;24.20
516;DHT22;244;48.508;9.052;2023-04-24T07:36:14;12.80;23.90
516;DHT22;244;48.508;9.052;2023-04-24T07:38:46;12.90;22.70
516;DHT22;244;48.508;9.052;2023-04-24T07:41:13;13.10;23.00
516;DHT22;244;48.508;9.052;2023-04-24T07:43:40;13.20;21.80
516;DHT22;244;48.508;9.052;2023-04-24T07:46:07;13.30;21.10
516;DHT22;244;48.508;9.052;2023-04-24T07:48:36;13.40;21.20
516;DHT22;244;48.508;9.052;2023-04-24T07:51:04;13.40;20.70
516;DHT22;244;48.508;9.052;2023-04-24T07:53:31;13.50;20.30
516;DHT22;244;48.508;9.052;2023-04-24T07:55:59;13.60;20.70
516;DHT22;244;48.508;9.052;2023-04-24T07:58:26;13.50;20.30
516;DHT22;244;48.508;9.052;2023-04-24T08:00:53;13.50;19.50
516;DHT22;244;48.508;9.052;2023-04-24T08:03:20;13.60;19.80
516;DHT22;244;48.508;9.052;2023-04-24T08:05:47;13.60;19.60
516;DHT22;244;48.508;9.052;2023-04-24T08:08:14;13.60;19.50
516;DHT22;244;48.508;9.052;2023-04-24T08:10:41;13.60;19.10
516;DHT22;244;48.508;9.052;2023-04-24T08:13:09;13.60;18.60
516;DHT22;244;48.508;9.052;2023-04-24T08:15:37;13.60;18.40
516;DHT22;244;48.508;9.052;2023-04-24T08:18:04;13.60;18.70
516;DHT22;244;48.508;9.052;2023-04-24T08:20:31;13.60;17.90
516;DHT22;244;48.508;9.052;2023-04-24T08:22:58;13.60;17.30
516;DHT22;244;48.508;9.052;2023-04-24T08:25:25;13.60;17.30
516;DHT22;244;48.508;9.052;2023-04-24T08:27:52;13.50;17.70
516;DHT22;244;48.508;9.052;2023-04-24T08:30:21;13.50;17.40
516;DHT22;244;48.508;9.052;2023-04-24T08:32:48;13.40;17.60
516;DHT22;244;48.508;9.052;2023-04-24T08:35:15;13.30;17.90
516;DHT22;244;48.508;9.052;2023-04-24T08:37:42;13.30;17.10
516;DHT22;244;48.508;9.052;2023-04-24T08:40:13;13.30;17.10
516;DHT22;244;48.508;9.052;2023-04-24T08:42:42;13.30;17.10
516;DHT22;244;48.508;9.052;2023-04-24T08:45:11;13.30;17.10
516;DHT22;244;48.508;9.052;2023-04-24T08:47:40;13.30;17.10
516;DHT22;244;48.508;9.052;2023-04-24T08:50:08;13.40;16.90
516;DHT22;244;48.508;9.052;2023-04-24T08:52:35;13.60;14.90
516;DHT22;244;48.508;9.052;2023-04-24T08:55:02;13.80;14.70
516;DHT22;244;48.508;9.052;2023-04-24T08:57:29;14.10;13.60
516;DHT22;244;48.508;9.052;2023-04-24T08:59:58;14.50;11.60
516;DHT22;244;48.508;9.052;2023-04-24T09:02:26;14.90;11.80
516;DHT22;244;48.508;9.052;2023-04-24T09:04:55;15.10;11.90
516;DHT22;244;48.508;9.052;2023-04-24T09:07:24;15.00;11.70
516;DHT22;244;48.508;9.052;2023-04-24T09:09:52;14.80;12.60
516;DHT22;244;48.508;9.052;2023-04-24T09:12:19;14.70;13.00
516;DHT22;244;48.508;9.052;2023-04-24T09:14:48;14.50;13.00
516;DHT22;244;48.508;9.052;2023-04-24T09:17:16;14.50;13.20
516;DHT22;244;48.508;9.052;2023-04-24T09:19:43;14.50;12.90
516;DHT22;244;48.508;9.052;2023-04-24T09:22:12;14.50;13.00
516;DHT22;244;48.508;9.052;2023-04-24T09:24:39;14.50;12.70
516;DHT22;244;48.508;9.052;2023-04-24T09:27:07;14.70;13.20
516;DHT22;244;48.508;9.052;2023-04-24T09:29:34;14.90;13.00
516;DHT22;244;48.508;9.052;2023-04-24T09:32:18;15.10;12.40
516;DHT22;244;48.508;9.052;2023-04-24T09:34:47;15.30;12.80
516;DHT22;244;48.508;9.052;2023-04-24T09:37:27;15.40;13.50
516;DHT22;244;48.508;9.052;2023-04-24T09:40:08;15.40;13.40
516;DHT22;244;48.508;9.052;2023-04-24T09:42:35;15.30;13.40
516;DHT22;244;48.508;9.052;2023-04-24T09:45:03;15.30;13.10
516;DHT22;244;48.508;9.052;2023-04-24T09:47:36;15.40;12.10
516;DHT22;244;48.508;9.052;2023-04-24T09:50:10;15.40;12.30
516;DHT22;244;48.508;9.052;2023-04-24T09:52:41;15.50;11.30
516;DHT22;244;48.508;9.052;2023-04-24T09:55:14;15.40;8.80
516;DHT22;244;48.508;9.052;2023-04-24T09:57:52;15.30;6.70
516;DHT22;244;48.508;9.052;2023-04-24T10:00:22;15.10;6.40
516;DHT22;244;48.508;9.052;2023-04-24T10:02:54;14.80;7.40
516;DHT22;244;48.508;9.052;2023-04-24T10:05:23;14.60;9.00
516;DHT22;244;48.508;9.052;2023-04-24T10:07:56;14.50;9.00
516;DHT22;244;48.508;9.052;2023-04-24T10:10:24;14.50;9.00
516;DHT22;244;48.508;9.052;2023-04-24T10:12:51;14.40;7.80
516;DHT22;244;48.508;9.052;2023-04-24T10:15:20;14.50;8.30
516;DHT22;244;48.508;9.052;2023-04-24T10:17:48;14.70;8.60
516;DHT22;244;48.508;9.052;2023-04-24T10:20:19;15.10;7.90
516;DHT22;244;48.508;9.052;2023-04-24T10:22:48;15.40;7.30
516;DHT22;244;48.508;9.052;2023-04-24T10:25:19;15.70;7.10
516;DHT22;244;48.508;9.052;2023-04-24T10:27:47;16.10;7.20
516;DHT22;244;48.508;9.052;2023-04-24T10:30:15;16.30;6.30
516;DHT22;244;48.508;9.052;2023-04-24T10:32:42;16.50;5.50
516;DHT22;244;48.508;9.052;2023-04-24T10:35:10;16.50;5.90
516;DHT22;244;48.508;9.052;2023-04-24T10:37:40;16.40;4.80
516;DHT22;244;48.508;9.052;2023-04-24T10:40:09;16.30;4.40
516;DHT22;244;48.508;9.052;2023-04-24T10:42:41;16.10;3.40
516;DHT22;244;48.508;9.052;2023-04-24T10:45:16;16.20;3.70
516;DHT22;244;48.508;9.052;2023-04-24T10:47:51;16.20;2.40
516;DHT22;244;48.508;9.052;2023-04-24T10:50:18;16.20;2.80
516;DHT22;244;48.508;9.052;2023-04-24T10:52:46;16.00;1.00
516;DHT22;244;48.508;9.052;2023-04-24T10:55:14;15.90;1.00
516;DHT22;244;48.508;9.052;2023-04-24T10:58:01;15.80;1.00
516;DHT22;244;48.508;9.052;2023-04-24T11:00:29;15.70;1.00
516;DHT22;244;48.508;9.052;2023-04-24T11:02:57;15.50;1.00
516;DHT22;244;48.508;9.052;2023-04-24T11:05:55;15.60;1.30
516;DHT22;244;48.508;9.052;2023-04-24T11:08:27;15.70;2.20
516;DHT22;244;48.508;9.052;2023-04-24T11:10:57;15.90;2.80
516;DHT22;244;48.508;9.052;2023-04-24T11:14:00;15.90;2.20
516;DHT22;244;48.508;9.052;2023-04-24T11:16:19;16.00;2.50
516;DHT22;244;48.508;9.052;2023-04-24T11:18:51;16.00;2.50
516;DHT22;244;48.508;9.052;2023-04-24T11:21:20;16.20;3.20
516;DHT22;244;48.508;9.052;2023-04-24T11:23:48;16.30;2.50
516;DHT22;244;48.508;9.052;2023-04-24T11:26:18;16.30;2.30
516;DHT22;244;48.508;9.052;2023-04-24T11:29:07;16.30;1.50
516;DHT22;244;48.508;9.052;2023-04-24T11:31:35;16.30;1.00
516;DHT22;244;48.508;9.052;2023-04-24T11:34:09;16.20;1.40
516;DHT22;244;48.508;9.052;2023-04-24T11:36:37;16.20;1.10
516;DHT22;244;48.508;9.052;2023-04-24T11:39:05;16.00;1.10
516;DHT22;244;48.508;9.052;2023-04-24T11:41:32;15.80;1.00
516;DHT22;244;48.508;9.052;2023-04-24T11:44:00;15.90;1.10
516;DHT22;244;48.508;9.052;2023-04-24T11:46:29;16.00;1.00
516;DHT22;244;48.508;9.052;2023-04-24T11:48:58;16.10;1.00
516;DHT22;244;48.508;9.052;2023-04-24T11:51:27;16.00;1.00
516;DHT22;244;48.508;9.052;2023-04-24T11:53:54;16.00;1.00
516;DHT22;244;48.508;9.052;2023-04-24T11:56:22;16.00;1.00
516;DHT22;244;48.508;9.052;2023-04-24T11:58:50;15.90;1.20
516;DHT22;244;48.508;9.052;2023-04-24T12:01:18;15.90;1.00
516;DHT22;244;48.508;9.052;2023-04-24T12:03:49;15.80;1.00
516;DHT22;244;48.508;9.052;2023-04-24T12:06:17;15.80;1.00
516;DHT22;244;48.508;9.052;2023-04-24T12:08:46;15.70;1.00
516;DHT22;244;48.508;9.052;2023-04-24T12:11:15;15.50;1.00
516;DHT22;244;48.508;9.052;2023-04-24T12:13:43;15.30;1.00
516;DHT22;244;48.508;9.052;2023-04-24T12:16:10;15.20;1.00
516;DHT22;244;48.508;9.052;2023-04-24T12:18:42;15.20;1.80
516;DHT22;244;48.508;9.052;2023-04-24T12:21:18;15.30;1.40
516;DHT22;244;48.508;9.052;2023-04-24T12:23:45;15.30;1.20
516;DHT22;244;48.508;9.052;2023-04-24T12:26:14;15.20;1.10
516;DHT22;244;48.508;9.052;2023-04-24T12:28:42;15.00;1.20
516;DHT22;244;48.508;9.052;2023-04-24T12:31:09;14.90;1.30
516;DHT22;244;48.508;9.052;2023-04-24T12:33:36;14.80;2.10
516;DHT22;244;48.508;9.052;2023-04-24T12:36:04;14.70;1.50
516;DHT22;244;48.508;9.052;2023-04-24T12:38:33;14.60;1.50
516;DHT22;244;48.508;9.052;2023-04-24T12:41:06;14.60;1.50
516;DHT22;244;48.508;9.052;2023-04-24T12:43:34;14.70;1.60
516;DHT22;244;48.508;9.052;2023-04-24T12:46:01;14.80;1.60
516;DHT22;244;48.508;9.052;2023-04-24T12:48:28;14.90;1.60
516;DHT22;244;48.508;9.052;2023-04-24T12:50:57;15.00;1.20
516;DHT22;244;48.508;9.052;2023-04-24T12:53:27;15.10;1.10
516;DHT22;244;48.508;9.052;2023-04-24T12:55:56;15.30;1.10
516;DHT22;244;48.508;9.052;2023-04-24T12:58:23;15.40;1.00
516;DHT22;244;48.508;9.052;2023-04-24T13:00:50;15.50;1.00
516;DHT22;244;48.508;9.052;2023-04-24T13:03:18;15.70;1.00
516;DHT22;244;48.508;9.052;2023-04-24T13:05:45;15.90;1.00
516;DHT22;244;48.508;9.052;2023-04-24T13:08:12;16.00;1.00
516;DHT22;244;48.508;9.052;2023-04-24T13:10:39;16.10;1.00
516;DHT22;244;48.508;9.052;2023-04-24T13:13:08;16.20;1.00
516;DHT22;244;48.508;9.052;2023-04-24T13:15:35;16.40;1.00
516;DHT22;244;48.508;9.052;2023-04-24T13:18:02;16.40;1.00
516;DHT22;244;48.508;9.052;2023-04-24T13:20:29;16.30;1.00
516;DHT22;244;48.508;9.052;2023-04-24T13:22:56;16.20;1.00
516;DHT22;244;48.508;9.052;2023-04-24T13:25:23;16.20;1.00
516;DHT22;244;48.508;9.052;2023-04-24T13:27:50;16.10;1.00
516;DHT22;244;48.508;9.052;2023-04-24T13:30:19;16.00;1.00
516;DHT22;244;48.508;9.052;2023-04-24T13:32:46;16.00;1.00
516;DHT22;244;48.508;9.052;2023-04-24T13:35:13;15.90;1.00
516;DHT22;244;48.508;9.052;2023-04-24T13:37:40;15.80;1.00
516;DHT22;244;48.508;9.052;2023-04-24T13:40:08;15.70;1.00
516;DHT22;244;48.508;9.052;2023-04-24T13:42:35;15.60;1.00
516;DHT22;244;48.508;9.052;2023-04-24T13:45:02;15.60;1.00
516;DHT22;244;48.508;9.052;2023-04-24T13:47:32;15.60;1.00
516;DHT22;244;48.508;9.052;2023-04-24T13:49:59;15.70;1.00
516;DHT22;244;48.508;9.052;2023-04-24T13:52:26;15.80;1.00
516;DHT22;244;48.508;9.052;2023-04-24T13:54:53;16.00;1.00
516;DHT22;244;48.508;9.052;2023-04-24T13:57:21;16.10;1.00
516;DHT22;244;48.508;9.052;2023-04-24T13:59:47;16.20;1.00
516;DHT22;244;48.508;9.052;2023-04-24T14:02:14;16.20;1.00
516;DHT22;244;48.508;9.052;2023-04-24T14:04:43;16.10;1.00
516;DHT22;244;48.508;9.052;2023-04-24T14:07:10;15.90;1.00
516;DHT22;244;48.508;9.052;2023-04-24T14:09:37;15.90;1.00
516;DHT22;244;48.508;9.052;2023-04-24T14:12:04;15.90;1.00
516;DHT22;244;48.508;9.052;2023-04-24T14:14:31;15.80;1.00
516;DHT22;244;48.508;9.052;2023-04-24T14:16:58;15.60;1.00
516;DHT22;244;48.508;9.052;2023-04-24T14:19:25;15.50;1.00
516;DHT22;244;48.508;9.052;2023-04-24T14:21:53;15.40;1.00
516;DHT22;244;48.508;9.052;2023-04-24T14:24:22;15.20;1.00
516;DHT22;244;48.508;9.052;2023-04-24T14:26:49;15.10;1.00
516;DHT22;244;48.508;9.052;2023-04-24T14:29:16;15.00;1.00
516;DHT22;244;48.508;9.052;2023-04-24T14:31:43;15.00;1.00
516;DHT22;244;48.508;9.052;2023-04-24T14:34:10;15.00;1.00
516;DHT22;244;48.508;9.052;2023-04-24T14:36:37;15.00;1.00
516;DHT22;244;48.508;9.052;2023-04-24T14:39:06;14.90;1.00
516;DHT22;244;48.508;9.052;2023-04-24T14:41:33;15.00;1.00
516;DHT22;244;48.508;9.052;2023-04-24T14:44:01;15.00;1.00
516;DHT22;244;48.508;9.052;2023-04-24T14:46:28;14.90;1.00
516;DHT22;244;48.508;9.052;2023-04-24T14:48:56;15.00;1.00
516;DHT22;244;48.508;9.052;2023-04-24T14:51:23;15.00;1.00
516;DHT22;244;48.508;9.052;2023-04-24T14:53:50;15.10;1.00
516;DHT22;244;48.508;9.052;2023-04-24T14:56:19;15.10;1.00
516;DHT22;244;48.508;9.052;2023-04-24T14:58:46;15.10;1.00
516;DHT22;244;48.508;9.052;2023-04-24T15:01:13;15.10;1.00
516;DHT22;244;48.508;9.052;2023-04-24T15:03:42;15.10;1.00
516;DHT22;244;48.508;9.052;2023-04-24T15:06:08;15.10;1.00
516;DHT22;244;48.508;9.052;2023-04-24T15:08:35;15.30;1.00
516;DHT22;244;48.508;9.052;2023-04-24T15:11:03;15.40;1.00
516;DHT22;244;48.508;9.052;2023-04-24T15:13:31;15.50;1.00
516;DHT22;244;48.508;9.052;2023-04-24T15:15:58;15.50;1.00
516;DHT22;244;48.508;9.052;2023-04-24T15:18:25;15.50;1.00
516;DHT22;244;48.508;9.052;2023-04-24T15:20:54;15.50;1.00
516;DHT22;244;48.508;9.052;2023-04-24T15:23:21;15.60;1.00
516;DHT22;244;48.508;9.052;2023-04-24T15:25:48;15.70;1.00
516;DHT22;244;48.508;9.052;2023-04-24T15:28:15;15.60;1.00
516;DHT22;244;48.508;9.052;2023-04-24T15:30:44;15.60;1.00
516;DHT22;244;48.508;9.052;2023-04-24T15:33:11;15.50;1.00
516;DHT22;244;48.508;9.052;2023-04-24T15:35:38;15.60;1.00
516;DHT22;244;48.508;9.052;2023-04-24T15:38:05;15.60;1.00
516;DHT22;244;48.508;9.052;2023-04-24T15:40:32;15.70;1.00
516;DHT22;244;48.508;9.052;2023-04-24T15:42:59;15.70;1.00
516;DHT22;244;48.508;9.052;2023-04-24T15:45:26;15.60;1.00
516;DHT22;244;48.508;9.052;2023-04-24T15:47:55;15.60;1.00
516;DHT22;244;48.508;9.052;2023-04-24T15:50:22;15.60;1.00
516;DHT22;244;48.508;9.052;2023-04-24T15:52:49;15.50;1.00
516;DHT22;244;48.508;9.052;2023-04-24T15:55:17;15.50;1.00
516;DHT22;244;48.508;9.052;2023-04-24T15:57:44;15.50;1.00
516;DHT22;244;48.508;9.052;2023-04-24T16:00:11;15.60;1.00
516;DHT22;244;48.508;9.052;2023-04-24T16:02:38;15.50;1.00
516;DHT22;244;48.508;9.052;2023-04-24T16:05:07;15.50;1.00
516;DHT22;244;48.508;9.052;2023-04-24T16:07:37;15.60;1.00
516;DHT22;244;48.508;9.052;2023-04-24T16:10:05;15.80;1.00
516;DHT22;244;48.508;9.052;2023-04-24T16:12:32;16.00;1.00
516;DHT22;244;48.508;9.052;2023-04-24T16:15:00;16.20;1.00
516;DHT22;244;48.508;9.052;2023-04-24T16:17:27;16.20;1.00
516;DHT22;244;48.508;9.052;2023-04-24T16:19:54;16.30;1.00
516;DHT22;244;48.508;9.052;2023-04-24T16:22:23;16.40;1.00
516;DHT22;244;48.508;9.052;2023-04-24T16:24:50;16.30;1.00
516;DHT22;244;48.508;9.052;2023-04-24T16:27:17;16.30;1.00
516;DHT22;244;48.508;9.052;2023-04-24T16:29:44;16.30;1.00
516;DHT22;244;48.508;9.052;2023-04-24T16:32:11;16.20;1.00
516;DHT22;244;48.508;9.052;2023-04-24T16:34:38;16.10;1.00
516;DHT22;244;48.508;9.052;2023-04-24T16:37:05;16.00;1.00
516;DHT22;244;48.508;9.052;2023-04-24T16:39:33;15.90;1.00
516;DHT22;244;48.508;9.052;2023-04-24T16:42:01;15.80;1.00
516;DHT22;244;48.508;9.052;2023-04-24T16:44:27;15.70;1.00
516;DHT22;244;48.508;9.052;2023-04-24T16:46:54;15.60;1.00
516;DHT22;244;48.508;9.052;2023-04-24T16:49:21;15.60;1.00
516;DHT22;244;48.508;9.052;2023-04-24T16:51:49;15.50;1.00
516;DHT22;244;48.508;9.052;2023-04-24T16:54:16;15.50;1.00
516;DHT22;244;48.508;9.052;2023-04-24T16:56:44;15.50;1.00
516;DHT22;244;48.508;9.052;2023-04-24T16:59:11;15.40;1.00
516;DHT22;244;48.508;9.052;2023-04-24T17:01:38;15.50;1.00
516;DHT22;244;48.508;9.052;2023-04-24T17:04:05;15.60;1.00
516;DHT22;244;48.508;9.052;2023-04-24T17:06:32;15.60;1.00
516;DHT22;244;48.508;9.052;2023-04-24T17:08:59;15.60;1.00